createdAt,value
2018-04-23T00:00:52.236Z,76.73
2018-04-23T00:01:52.405Z,76.53
2018-04-23T00:02:52.582Z,76.15
2018-04-23T00:03:52.750Z,76.15
2018-04-23T00:04:52.928Z,77.31
2018-04-23T00:05:53.091Z,78.17
2018-04-23T00:06:53.268Z,77.88
2018-04-23T00:07:53.441Z,77.59
2018-04-23T00:08:53.616Z,78.08
2018-04-23T00:09:53.794Z,77.59
2018-04-23T00:10:53.966Z,77.88
2018-04-23T00:11:54.268Z,78.08
2018-04-23T00:12:54.346Z,77.21
2018-04-23T00:13:54.522Z,77.21
2018-04-23T00:14:54.692Z,77.98
2018-04-23T00:15:54.869Z,77.69
2018-04-23T00:16:55.248Z,77.98
2018-04-23T00:17:55.732Z,77.78
2018-04-23T00:18:55.367Z,78.27
2018-04-23T00:19:55.792Z,78.65
2018-04-23T00:20:55.714Z,78.42
2018-04-23T00:21:56.026Z,78.23
2018-04-23T00:22:56.109Z,78.33
2018-04-23T00:23:56.179Z,78.71
2018-04-23T00:24:56.343Z,78.71
2018-04-23T00:25:56.518Z,78.52
2018-04-23T00:26:56.688Z,78.61
2018-04-23T00:27:56.869Z,78.33
2018-04-23T00:28:57.039Z,78.33
2018-04-23T00:29:57.212Z,78.03
2018-04-23T00:30:57.391Z,78.03
2018-04-23T00:31:57.564Z,77.59
2018-04-23T00:32:57.754Z,77.21
2018-04-23T00:33:57.929Z,76.82
2018-04-23T00:34:58.099Z,76.69
2018-04-23T00:35:58.274Z,77.46
2018-04-23T00:36:58.683Z,77.84
2018-04-23T00:37:58.565Z,78.03
2018-04-23T00:38:58.741Z,78.23
2018-04-23T00:39:59.081Z,78.71
2018-04-23T00:40:59.125Z,78.52
2018-04-23T00:41:59.486Z,78.23
2018-04-23T00:42:59.485Z,78.61
2018-04-23T00:43:59.661Z,78.61
2018-04-23T00:44:59.824Z,77.84
2018-04-23T00:46:00.705Z,77.98
2018-04-23T00:47:00.127Z,78.13
2018-04-23T00:48:00.293Z,77.75
2018-04-23T00:49:00.486Z,77.56
2018-04-23T00:50:01.205Z,77.75
2018-04-23T00:51:00.910Z,78.23
2018-04-23T00:52:01.055Z,78.61
2018-04-23T00:53:01.228Z,77.65
2018-04-23T00:54:01.401Z,78.13
2018-04-23T00:55:01.730Z,78.13
2018-04-23T00:56:01.719Z,78.71
2018-04-23T00:57:01.891Z,78.42
2018-04-23T00:58:02.079Z,78.52
2018-04-23T00:59:02.258Z,78.52
2018-04-23T01:00:02.419Z,78.42
2018-04-23T01:01:02.588Z,78.71
2018-04-23T01:02:02.765Z,78.33
2018-04-23T01:03:02.932Z,78.23
2018-04-23T01:04:03.321Z,78.81
2018-04-23T01:05:03.285Z,79.19
2018-04-23T01:06:03.460Z,78.71
2018-04-23T01:07:03.639Z,79.58
2018-04-23T01:08:03.807Z,79.48
2018-04-23T01:09:03.978Z,79.86
2018-04-23T01:10:04.163Z,79.86
2018-04-23T01:11:05.393Z,79.48
2018-04-23T01:12:04.725Z,79.48
2018-04-23T01:13:04.561Z,78.81
2018-04-23T01:14:04.735Z,79.19
2018-04-23T01:15:04.936Z,78.33
2018-04-23T01:16:05.129Z,78.33
2018-04-23T01:17:05.310Z,79.00
2018-04-23T01:18:05.490Z,79.00
2018-04-23T01:19:05.672Z,78.81
2018-04-23T01:20:05.906Z,79.28
2018-04-23T01:21:05.967Z,78.90
2018-04-23T01:22:06.151Z,78.81
2018-04-23T01:23:06.328Z,78.71
2018-04-23T01:24:06.504Z,78.90
2018-04-23T01:25:06.678Z,78.81
2018-04-23T01:26:06.854Z,79.10
2018-04-23T01:27:07.019Z,79.10
2018-04-23T01:28:07.179Z,78.90
2018-04-23T01:29:07.365Z,79.48
2018-04-23T01:30:07.651Z,79.10
2018-04-23T01:31:07.680Z,79.38
2018-04-23T01:32:07.847Z,79.53
2018-04-23T01:33:08.016Z,79.58
2018-04-23T01:34:08.201Z,80.92
2018-04-23T01:35:08.521Z,80.44
2018-04-23T01:36:08.566Z,80.98
2018-04-23T01:37:08.738Z,80.69
2018-04-23T01:38:08.913Z,81.56
2018-04-23T01:39:09.084Z,80.69
2018-04-23T01:40:09.261Z,80.98
2018-04-23T01:41:09.423Z,80.88
2018-04-23T01:42:09.596Z,81.17
2018-04-23T01:43:09.819Z,80.88
2018-04-23T01:44:10.059Z,80.88
2018-04-23T01:45:10.170Z,80.30
2018-04-23T01:46:10.347Z,80.30
2018-04-23T01:47:10.525Z,80.88
2018-04-23T01:48:10.701Z,80.50
2018-04-23T01:49:10.870Z,80.88
2018-04-23T01:50:11.046Z,81.17
2018-04-23T01:51:11.232Z,80.88
2018-04-23T01:52:11.400Z,81.17
2018-04-23T01:53:11.804Z,81.07
2018-04-23T01:54:11.775Z,81.07
2018-04-23T01:55:11.947Z,80.98
2018-04-23T01:56:12.117Z,81.02
2018-04-23T01:57:12.292Z,80.73
2018-04-23T01:58:12.517Z,80.92
2018-04-23T01:59:12.652Z,81.12
2018-04-23T02:00:12.806Z,81.12
2018-04-23T02:01:12.980Z,81.02
2018-04-23T02:02:13.352Z,80.83
2018-04-23T02:03:13.651Z,81.02
2018-04-23T02:04:13.520Z,80.35
2018-04-23T02:05:13.679Z,81.46
2018-04-23T02:06:14.053Z,81.46
2018-04-23T02:07:14.295Z,80.83
2018-04-23T02:08:15.146Z,80.73
2018-04-23T02:09:14.390Z,81.02
2018-04-23T02:10:14.564Z,80.92
2018-04-23T02:11:14.741Z,81.60
2018-04-23T02:12:15.188Z,81.40
2018-04-23T02:13:15.137Z,81.40
2018-04-23T02:14:15.322Z,81.17
2018-04-23T02:15:15.717Z,81.56
2018-04-23T02:16:15.576Z,81.56
2018-04-23T02:17:15.753Z,81.65
2018-04-23T02:18:16.226Z,81.37
2018-04-23T02:19:16.649Z,81.17
2018-04-23T02:20:16.243Z,81.07
2018-04-23T02:21:16.653Z,81.27
2018-04-23T02:22:16.884Z,80.98
2018-04-23T02:23:16.932Z,80.98
2018-04-23T02:24:16.927Z,81.17
2018-04-23T02:25:18.217Z,81.56
2018-04-23T02:26:19.721Z,81.65
2018-04-23T02:27:18.694Z,81.75
2018-04-23T02:28:18.266Z,82.42
2018-04-23T02:29:17.759Z,82.42
2018-04-23T02:30:18.090Z,82.57
2018-04-23T02:31:18.076Z,82.19
2018-04-23T02:32:18.427Z,82.67
2018-04-23T02:33:18.666Z,82.19
2018-04-23T02:34:18.583Z,82.86
2018-04-23T02:35:18.889Z,82.86
2018-04-23T02:36:18.916Z,82.48
2018-04-23T02:37:19.716Z,81.99
2018-04-23T02:38:19.262Z,81.90
2018-04-23T02:39:19.437Z,82.42
2018-04-23T02:40:19.610Z,82.42
2018-04-23T02:41:19.779Z,82.42
2018-04-23T02:42:19.968Z,82.42
2018-04-23T02:43:20.125Z,82.23
2018-04-23T02:44:20.291Z,82.04
2018-04-23T02:45:20.476Z,81.75
2018-04-23T02:46:20.692Z,81.37
2018-04-23T02:47:20.818Z,81.56
2018-04-23T02:48:20.992Z,81.65
2018-04-23T02:49:21.170Z,81.27
2018-04-23T02:50:21.338Z,81.37
2018-04-23T02:51:21.503Z,81.37
2018-04-23T02:54:50.254Z,81.56
